• Join FlightAware (Why Join?)
  • Login
  • US Flag 
05:47PM EDT


 

Airport Tracker/Info


-or-


 

Live Flight TrackerFlight Track Log ✈ RPA3496 ✈ 05-May-2014 ✈ KLGA - KPIT

Flight Track Log - Related Links

Times and Time Zones

All times are in EDT time to prevent confusion due to time zone crossing. See the RPA3496 flight status page for this flight to view local times or setup timezone preferences in your user account.

Time Position Orientation Groundspeed Altitude Reporting Facility
EDT Latitude Longitude Course Direction KTS MPH feet Rate Location/Type
04:23PM 40.8000 -73.8667 270° West 140 161 1,700  Level New York TRACON
04:24PM 40.8500 -73.8833 346° North 214 246 4,200 2,880 Climbing New York TRACON
04:25PM 40.7712 -74.1974 269° West  Level Estimated
04:25PM 40.9000 -73.9333 323° Northwest 262 302 7,200  Level New York TRACON
04:26PM 40.7689 -74.3056 268° West  Level Estimated
04:26PM 40.9000 -74.0333 270° West 266 306 11,100  Level New York TRACON
04:27PM 40.7828 -74.4123 280° West  Level FlightAware Approximate
04:27PM 40.8833 -74.1167 255° West 289 333 12,900  Level New York TRACON
04:28PM 40.7834 -74.4333 270° West  Level FlightAware Approximate
04:28PM 40.8833 -74.2333 270° West 310 357 15,700  Level New York TRACON
04:29PM 40.8667 -74.3500 259° West 311 358 17,000 600 Climbing New York TRACON
04:30PM 40.8667 -74.4500 270° West 305 351 17,000  Level New York TRACON
04:31PM 40.8500 -74.5667 259° West 307 353 17,000  Level New York TRACON
04:32PM 40.8419 -74.7017 266° West 314 361 17,000  Level New York Center
04:33PM 40.8322 -74.8053 263° West 309 356 17,000 780 Level New York Center
04:34PM 40.8219 -74.9200 263° West 314 361 18,600 1,800 Climbing New York Center
04:35PM 40.8119 -75.0289 263° West 314 361 20,600 2,100 Climbing New York Center
04:36PM 40.7847 -75.1453 253° West 314 361 22,700 1,920 Climbing New York Center
04:37PM 40.7536 -75.2500 249° West 319 367 24,500 1,740 Climbing New York Center
04:38PM 40.7217 -75.3794 252° West 332 382 26,300 1,740 Climbing New York Center
04:39PM 40.6897 -75.5003 251° West 344 396 28,000 840 Climbing New York Center
04:40PM 40.6556 -75.6239 250° West 350 403 28,000  Level New York Center
04:41PM 40.6236 -75.7419 250° West 350 403 28,000  Level New York Center
04:42PM 40.5894 -75.8625 250° West 350 403 28,000  Level New York Center
04:43PM 40.5336 -75.9922 241° Southwest 364 419 28,000  Level New York Center
04:44PM 40.4886 -76.1142 244° Southwest 369 425 28,000  Level New York Center
04:45PM 40.4436 -76.2308 243° Southwest 369 425 28,000  Level New York Center
04:46PM 40.4025 -76.3528 246° West 374 430 28,000  Level New York Center
04:47PM 40.3717 -76.4731 251° West 366 421 28,000  Level New York Center
04:48PM 40.3367 -76.5956 249° West 366 421 28,000  Level New York Center
04:49PM 40.3056 -76.7181 252° West 361 415 28,000  Level New York Center
04:50PM 40.2722 -76.8378 250° West 355 409 28,000  Level New York Center
04:51PM 40.2408 -76.9600 251° West 360 414 28,000 -480 Level New York Center
04:52PM 40.2144 -77.0664 252° West 360 414 27,100 -1,020 Descending New York Center
04:53PM 40.1831 -77.1831 251° West 355 409 26,000 -1,140 Descending New York Center
04:55PM 40.1203 -77.4150 251° West 340 391 23,800 -1,140 Descending Cleveland Center
04:56PM 40.0886 -77.5333 251° West 332 382 22,700 -900 Descending Cleveland Center
04:57PM 40.0592 -77.6397 250° West 331 381 22,000 -360 Descending Cleveland Center
04:58PM 40.0222 -77.7719 250° West 327 376 22,000  Level Cleveland Center
04:59PM 39.9917 -77.8806 250° West 323 372 22,000  Level Cleveland Center
05:00PM 39.9714 -77.9919 257° West 318 366 22,000  Level Cleveland Center
05:01PM 39.9744 -78.1033 272° West 311 358 22,000  Level Cleveland Center
05:02PM 39.9769 -78.2144 272° West 309 356 22,000  Level Cleveland Center
05:03PM 39.9814 -78.3281 273° West 304 350 22,000  Level Cleveland Center
05:04PM 39.9844 -78.4400 272° West 305 351 22,000  Level Cleveland Center
05:05PM 39.9867 -78.5725 271° West 306 352 22,000  Level Cleveland Center
05:06PM 39.9892 -78.6828 272° West 306 352 22,000 -540 Level Cleveland Center
05:08PM 40.0072 -78.7883 283° West 299 344 20,900 -1,140 Descending Cleveland Center
05:09PM 40.0286 -78.8894 285° West 293 337 19,700 -1,260 Descending Cleveland Center
05:10PM 40.0492 -78.9919 285° West 280 322 18,400 -1,200 Descending Cleveland Center
05:11PM 40.0689 -79.0842 286° West 280 322 17,300 -1,200 Descending Cleveland Center
05:12PM 40.0922 -79.1986 285° West 276 318 16,000 -1,200 Descending Cleveland Center
05:13PM 40.1111 -79.2928 285° West 269 310 14,900 -1,020 Descending Cleveland Center
05:14PM 40.1258 -79.3664 285° West 250 288 14,000 -1,200 Descending Cleveland Center
05:15PM 40.1628 -79.4617 297° West 249 287 12,500 -1,320 Descending Cleveland Center
05:16PM 40.1983 -79.5386 301° West 249 287 11,300 -1,200 Descending Cleveland Center
05:17PM 40.2336 -79.6167 301° West 249 287 10,100 -720 Descending Cleveland Center
05:18PM 40.2636 -79.7000 295° West 251 289 9,900 -1,260 Descending Cleveland Center
05:19PM 40.2878 -79.7878 290° West 254 292 7,500 -1,920 Descending Cleveland Center
05:20PM 40.3142 -79.8819 290° West 272 313 6,000 -780 Descending Cleveland Center
05:21PM 40.3467 -79.9942 291° West 273 314 6,000  Level Cleveland Center
05:22PM 40.3714 -80.0808 291° West 273 314 6,000  Level Cleveland Center
05:23PM 40.3994 -80.1725 292° West 273 314 6,000 -540 Level Cleveland Center
05:24PM 40.4147 -80.2692 282° West 232 267 4,900 -1,200 Descending Cleveland Center
05:25PM 40.4253 -80.3533 279° West 233 268 3,600 -960 Descending Cleveland Center
05:26PM 40.4728 -80.3828 335° Northwest 210 242 3,000 -540 Descending Cleveland Center
05:27PM 40.5039 -80.3475 41° Northeast 184 212 2,500 -720 Descending Cleveland Center
05:28PM 40.5028 -80.2989 92° East 151 174 1,600 -900 Descending Cleveland Center